Aldrich, Minnesota
Current Conditions -  °F | °C
As of 6:53 AM on Thursday 23 Oct 2014 (Local Time) from KSAZ Reporting Station
Overcast Overcast  
Wind Chill: 46°   Ceiling: 400
Heat Index: 48°   Visibility: 7mi
Dew Point: 48°   Wind: 5mph
Humidity: 100%   Direction: 210°SSW
Pressure: 29.94"   Gusts: NA
Location:  46.38°N, 94.94°W
Report Text: KSAZ 231153Z AUTO 21004KT 7SM OVC004 09/09 A2994 RMK AO2
Loading
Personal Weather Stations






























Interactive Weather Map
Tropical Storm Tracking
New forecast layout! Learn more

10-Day Weather Forecast

Advertisements
Track Severe Weather on mobile